sensor_id;sensor_type;location;lat;lon;timestamp;P1;durP1;ratioP1;P2;durP2;ratioP2
29382;SDS011;16365;51.598;7.668;2023-03-31T00:01:05;6.80;;;1.52;;
29382;SDS011;16365;51.598;7.668;2023-03-31T00:03:32;7.68;;;1.88;;
29382;SDS011;16365;51.598;7.668;2023-03-31T00:05:59;5.90;;;1.42;;
29382;SDS011;16365;51.598;7.668;2023-03-31T00:08:27;6.32;;;1.85;;
29382;SDS011;16365;51.598;7.668;2023-03-31T00:11:02;9.27;;;2.20;;
29382;SDS011;16365;51.598;7.668;2023-03-31T00:13:30;7.60;;;1.52;;
29382;SDS011;16365;51.598;7.668;2023-03-31T00:15:57;7.05;;;1.48;;
29382;SDS011;16365;51.598;7.668;2023-03-31T00:18:26;8.80;;;1.80;;
29382;SDS011;16365;51.598;7.668;2023-03-31T00:20:53;13.35;;;1.67;;
29382;SDS011;16365;51.598;7.668;2023-03-31T00:23:19;7.88;;;1.70;;
29382;SDS011;16365;51.598;7.668;2023-03-31T00:25:54;7.20;;;1.60;;
29382;SDS011;16365;51.598;7.668;2023-03-31T00:28:20;8.73;;;1.45;;
29382;SDS011;16365;51.598;7.668;2023-03-31T00:30:48;5.50;;;1.52;;
29382;SDS011;16365;51.598;7.668;2023-03-31T00:33:14;9.02;;;1.50;;
29382;SDS011;16365;51.598;7.668;2023-03-31T00:35:40;6.97;;;1.67;;
29382;SDS011;16365;51.598;7.668;2023-03-31T00:38:08;10.68;;;1.85;;
29382;SDS011;16365;51.598;7.668;2023-03-31T00:40:43;6.20;;;1.35;;
29382;SDS011;16365;51.598;7.668;2023-03-31T00:46:12;5.35;;;1.50;;
29382;SDS011;16365;51.598;7.668;2023-03-31T00:48:47;5.95;;;1.63;;
29382;SDS011;16365;51.598;7.668;2023-03-31T00:51:16;10.68;;;1.50;;
29382;SDS011;16365;51.598;7.668;2023-03-31T00:53:46;8.73;;;1.70;;
29382;SDS011;16365;51.598;7.668;2023-03-31T00:56:20;5.47;;;1.35;;
29382;SDS011;16365;51.598;7.668;2023-03-31T00:58:47;7.85;;;1.55;;
29382;SDS011;16365;51.598;7.668;2023-03-31T01:01:16;7.40;;;1.52;;
29382;SDS011;16365;51.598;7.668;2023-03-31T01:03:45;7.43;;;1.60;;
29382;SDS011;16365;51.598;7.668;2023-03-31T01:06:13;5.07;;;1.50;;
29382;SDS011;16365;51.598;7.668;2023-03-31T01:08:45;11.38;;;1.70;;
29382;SDS011;16365;51.598;7.668;2023-03-31T01:11:15;6.20;;;1.80;;
29382;SDS011;16365;51.598;7.668;2023-03-31T01:13:44;6.45;;;1.73;;
29382;SDS011;16365;51.598;7.668;2023-03-31T01:16:15;8.82;;;1.60;;
29382;SDS011;16365;51.598;7.668;2023-03-31T01:18:43;5.93;;;1.58;;
29382;SDS011;16365;51.598;7.668;2023-03-31T01:21:19;9.02;;;1.42;;
29382;SDS011;16365;51.598;7.668;2023-03-31T01:27:11;8.05;;;1.85;;
29382;SDS011;16365;51.598;7.668;2023-03-31T01:29:58;9.52;;;2.20;;
29382;SDS011;16365;51.598;7.668;2023-03-31T01:35:57;7.47;;;1.92;;
29382;SDS011;16365;51.598;7.668;2023-03-31T01:44:38;9.88;;;1.50;;
29382;SDS011;16365;51.598;7.668;2023-03-31T01:47:13;8.68;;;1.60;;
29382;SDS011;16365;51.598;7.668;2023-03-31T01:50:00;6.25;;;1.45;;
29382;SDS011;16365;51.598;7.668;2023-03-31T01:52:39;5.65;;;1.38;;
29382;SDS011;16365;51.598;7.668;2023-03-31T01:55:23;6.93;;;1.70;;
29382;SDS011;16365;51.598;7.668;2023-03-31T01:57:59;7.13;;;1.83;;
29382;SDS011;16365;51.598;7.668;2023-03-31T02:00:32;9.18;;;1.70;;
29382;SDS011;16365;51.598;7.668;2023-03-31T02:03:13;7.03;;;1.60;;
29382;SDS011;16365;51.598;7.668;2023-03-31T02:05:45;8.18;;;1.73;;
29382;SDS011;16365;51.598;7.668;2023-03-31T02:08:19;7.38;;;1.42;;
29382;SDS011;16365;51.598;7.668;2023-03-31T02:10:50;8.82;;;2.13;;
29382;SDS011;16365;51.598;7.668;2023-03-31T02:13:18;7.13;;;1.55;;
29382;SDS011;16365;51.598;7.668;2023-03-31T02:15:50;6.18;;;1.67;;
29382;SDS011;16365;51.598;7.668;2023-03-31T02:18:24;5.60;;;1.70;;
29382;SDS011;16365;51.598;7.668;2023-03-31T02:20:55;4.47;;;1.85;;
29382;SDS011;16365;51.598;7.668;2023-03-31T02:23:25;7.28;;;1.70;;
29382;SDS011;16365;51.598;7.668;2023-03-31T02:25:58;7.07;;;1.80;;
29382;SDS011;16365;51.598;7.668;2023-03-31T02:28:30;4.03;;;1.33;;
29382;SDS011;16365;51.598;7.668;2023-03-31T02:31:20;5.75;;;1.75;;
29382;SDS011;16365;51.598;7.668;2023-03-31T02:33:58;5.88;;;1.50;;
29382;SDS011;16365;51.598;7.668;2023-03-31T02:36:26;4.82;;;1.73;;
29382;SDS011;16365;51.598;7.668;2023-03-31T02:38:54;8.90;;;2.20;;
29382;SDS011;16365;51.598;7.668;2023-03-31T02:41:24;9.60;;;2.45;;
29382;SDS011;16365;51.598;7.668;2023-03-31T02:43:51;8.85;;;2.72;;
29382;SDS011;16365;51.598;7.668;2023-03-31T02:46:17;7.47;;;2.60;;
29382;SDS011;16365;51.598;7.668;2023-03-31T02:48:48;7.65;;;2.67;;
29382;SDS011;16365;51.598;7.668;2023-03-31T02:51:36;8.93;;;2.80;;
29382;SDS011;16365;51.598;7.668;2023-03-31T03:00:01;6.18;;;1.73;;
29382;SDS011;16365;51.598;7.668;2023-03-31T03:05:39;6.72;;;1.67;;
29382;SDS011;16365;51.598;7.668;2023-03-31T03:08:22;8.35;;;1.67;;
29382;SDS011;16365;51.598;7.668;2023-03-31T03:13:33;11.15;;;1.95;;
29382;SDS011;16365;51.598;7.668;2023-03-31T03:16:10;9.13;;;1.63;;
29382;SDS011;16365;51.598;7.668;2023-03-31T03:18:51;6.80;;;1.60;;
29382;SDS011;16365;51.598;7.668;2023-03-31T03:21:21;5.88;;;1.45;;
29382;SDS011;16365;51.598;7.668;2023-03-31T03:23:47;7.60;;;2.05;;
29382;SDS011;16365;51.598;7.668;2023-03-31T03:26:14;8.07;;;1.95;;
29382;SDS011;16365;51.598;7.668;2023-03-31T03:28:46;10.35;;;2.58;;
29382;SDS011;16365;51.598;7.668;2023-03-31T03:31:14;14.65;;;3.53;;
29382;SDS011;16365;51.598;7.668;2023-03-31T03:33:41;8.45;;;1.48;;
29382;SDS011;16365;51.598;7.668;2023-03-31T03:36:09;8.43;;;1.80;;
29382;SDS011;16365;51.598;7.668;2023-03-31T03:38:36;7.03;;;1.83;;
29382;SDS011;16365;51.598;7.668;2023-03-31T03:41:02;8.68;;;1.88;;
29382;SDS011;16365;51.598;7.668;2023-03-31T03:43:29;4.85;;;1.35;;
29382;SDS011;16365;51.598;7.668;2023-03-31T03:45:56;12.02;;;2.38;;
29382;SDS011;16365;51.598;7.668;2023-03-31T03:48:22;5.60;;;1.77;;
29382;SDS011;16365;51.598;7.668;2023-03-31T03:50:49;9.02;;;1.90;;
29382;SDS011;16365;51.598;7.668;2023-03-31T03:53:16;10.40;;;2.70;;
29382;SDS011;16365;51.598;7.668;2023-03-31T03:55:42;7.57;;;1.90;;
29382;SDS011;16365;51.598;7.668;2023-03-31T03:58:10;5.95;;;1.55;;
29382;SDS011;16365;51.598;7.668;2023-03-31T04:00:36;9.63;;;1.98;;
29382;SDS011;16365;51.598;7.668;2023-03-31T04:03:03;7.55;;;1.83;;
29382;SDS011;16365;51.598;7.668;2023-03-31T04:05:29;6.90;;;1.85;;
29382;SDS011;16365;51.598;7.668;2023-03-31T04:07:55;8.05;;;1.75;;
29382;SDS011;16365;51.598;7.668;2023-03-31T04:10:22;7.45;;;1.90;;
29382;SDS011;16365;51.598;7.668;2023-03-31T04:12:48;7.68;;;1.67;;
29382;SDS011;16365;51.598;7.668;2023-03-31T04:15:15;9.15;;;2.00;;
29382;SDS011;16365;51.598;7.668;2023-03-31T04:17:42;8.35;;;1.98;;
29382;SDS011;16365;51.598;7.668;2023-03-31T04:20:16;8.68;;;2.15;;
29382;SDS011;16365;51.598;7.668;2023-03-31T04:22:42;11.82;;;2.33;;
29382;SDS011;16365;51.598;7.668;2023-03-31T04:25:12;12.93;;;3.20;;
29382;SDS011;16365;51.598;7.668;2023-03-31T04:27:42;11.27;;;2.75;;
29382;SDS011;16365;51.598;7.668;2023-03-31T04:30:16;9.25;;;2.47;;
29382;SDS011;16365;51.598;7.668;2023-03-31T04:32:52;6.57;;;2.47;;
29382;SDS011;16365;51.598;7.668;2023-03-31T04:35:21;6.97;;;2.15;;
29382;SDS011;16365;51.598;7.668;2023-03-31T04:37:50;7.10;;;1.88;;
29382;SDS011;16365;51.598;7.668;2023-03-31T04:40:18;12.23;;;3.03;;
29382;SDS011;16365;51.598;7.668;2023-03-31T04:42:44;7.57;;;2.00;;
29382;SDS011;16365;51.598;7.668;2023-03-31T04:45:11;11.63;;;2.30;;
29382;SDS011;16365;51.598;7.668;2023-03-31T04:47:38;7.45;;;1.75;;
29382;SDS011;16365;51.598;7.668;2023-03-31T04:50:05;9.15;;;1.85;;
29382;SDS011;16365;51.598;7.668;2023-03-31T04:52:32;7.70;;;2.08;;
29382;SDS011;16365;51.598;7.668;2023-03-31T04:54:58;7.95;;;1.45;;
29382;SDS011;16365;51.598;7.668;2023-03-31T04:57:24;7.97;;;1.63;;
29382;SDS011;16365;51.598;7.668;2023-03-31T04:59:51;4.20;;;1.90;;
29382;SDS011;16365;51.598;7.668;2023-03-31T05:02:17;7.78;;;1.85;;
29382;SDS011;16365;51.598;7.668;2023-03-31T05:04:50;7.40;;;1.75;;
29382;SDS011;16365;51.598;7.668;2023-03-31T05:07:17;9.93;;;2.55;;
29382;SDS011;16365;51.598;7.668;2023-03-31T05:09:44;7.15;;;1.67;;
29382;SDS011;16365;51.598;7.668;2023-03-31T05:12:11;8.48;;;2.20;;
29382;SDS011;16365;51.598;7.668;2023-03-31T05:14:37;7.50;;;1.55;;
29382;SDS011;16365;51.598;7.668;2023-03-31T05:17:04;8.65;;;1.83;;
29382;SDS011;16365;51.598;7.668;2023-03-31T05:19:31;8.88;;;2.10;;
29382;SDS011;16365;51.598;7.668;2023-03-31T05:21:57;10.43;;;2.35;;
29382;SDS011;16365;51.598;7.668;2023-03-31T05:24:24;9.32;;;1.92;;
29382;SDS011;16365;51.598;7.668;2023-03-31T05:26:53;7.57;;;1.92;;
29382;SDS011;16365;51.598;7.668;2023-03-31T05:29:20;9.60;;;2.33;;
29382;SDS011;16365;51.598;7.668;2023-03-31T05:31:47;4.63;;;1.40;;
29382;SDS011;16365;51.598;7.668;2023-03-31T05:34:13;6.13;;;1.75;;
29382;SDS011;16365;51.598;7.668;2023-03-31T05:36:41;7.68;;;1.85;;
29382;SDS011;16365;51.598;7.668;2023-03-31T05:39:08;12.77;;;1.85;;
29382;SDS011;16365;51.598;7.668;2023-03-31T05:41:35;10.50;;;1.80;;
29382;SDS011;16365;51.598;7.668;2023-03-31T05:44:01;10.10;;;1.63;;
29382;SDS011;16365;51.598;7.668;2023-03-31T05:46:28;9.75;;;1.67;;
29382;SDS011;16365;51.598;7.668;2023-03-31T05:48:54;8.63;;;1.95;;
29382;SDS011;16365;51.598;7.668;2023-03-31T05:51:21;5.25;;;1.48;;
29382;SDS011;16365;51.598;7.668;2023-03-31T05:53:48;9.73;;;1.85;;
29382;SDS011;16365;51.598;7.668;2023-03-31T05:56:14;8.10;;;2.05;;
29382;SDS011;16365;51.598;7.668;2023-03-31T05:58:41;5.82;;;2.33;;
29382;SDS011;16365;51.598;7.668;2023-03-31T06:01:09;15.38;;;2.47;;
29382;SDS011;16365;51.598;7.668;2023-03-31T06:03:44;6.38;;;1.90;;
29382;SDS011;16365;51.598;7.668;2023-03-31T06:06:12;9.50;;;1.80;;
29382;SDS011;16365;51.598;7.668;2023-03-31T06:08:39;8.20;;;2.05;;
29382;SDS011;16365;51.598;7.668;2023-03-31T06:11:07;7.47;;;2.10;;
29382;SDS011;16365;51.598;7.668;2023-03-31T06:13:37;5.35;;;1.65;;
29382;SDS011;16365;51.598;7.668;2023-03-31T06:16:04;9.60;;;1.90;;
29382;SDS011;16365;51.598;7.668;2023-03-31T06:18:33;3.47;;;1.42;;
29382;SDS011;16365;51.598;7.668;2023-03-31T06:21:01;7.55;;;2.00;;
29382;SDS011;16365;51.598;7.668;2023-03-31T06:23:28;5.55;;;1.85;;
29382;SDS011;16365;51.598;7.668;2023-03-31T06:25:57;8.15;;;1.70;;
29382;SDS011;16365;51.598;7.668;2023-03-31T06:28:28;5.80;;;1.45;;
29382;SDS011;16365;51.598;7.668;2023-03-31T06:30:58;5.57;;;1.92;;
29382;SDS011;16365;51.598;7.668;2023-03-31T06:33:26;8.02;;;1.65;;
29382;SDS011;16365;51.598;7.668;2023-03-31T06:35:54;4.93;;;1.35;;
29382;SDS011;16365;51.598;7.668;2023-03-31T06:38:22;4.65;;;1.33;;
29382;SDS011;16365;51.598;7.668;2023-03-31T06:40:49;4.18;;;1.83;;
29382;SDS011;16365;51.598;7.668;2023-03-31T06:43:16;8.45;;;2.03;;
29382;SDS011;16365;51.598;7.668;2023-03-31T06:45:42;3.70;;;1.27;;
29382;SDS011;16365;51.598;7.668;2023-03-31T06:48:09;7.15;;;1.48;;
29382;SDS011;16365;51.598;7.668;2023-03-31T06:50:36;4.97;;;1.27;;
29382;SDS011;16365;51.598;7.668;2023-03-31T06:53:04;8.15;;;1.63;;
29382;SDS011;16365;51.598;7.668;2023-03-31T06:55:30;5.93;;;1.80;;
29382;SDS011;16365;51.598;7.668;2023-03-31T06:57:59;7.35;;;1.60;;
29382;SDS011;16365;51.598;7.668;2023-03-31T07:00:25;5.68;;;1.40;;
29382;SDS011;16365;51.598;7.668;2023-03-31T07:02:52;4.80;;;1.17;;
29382;SDS011;16365;51.598;7.668;2023-03-31T07:05:20;3.72;;;1.23;;
29382;SDS011;16365;51.598;7.668;2023-03-31T07:07:52;5.40;;;1.30;;
29382;SDS011;16365;51.598;7.668;2023-03-31T07:10:23;5.97;;;0.93;;
29382;SDS011;16365;51.598;7.668;2023-03-31T07:12:51;5.65;;;1.70;;
29382;SDS011;16365;51.598;7.668;2023-03-31T07:15:17;7.13;;;1.27;;
29382;SDS011;16365;51.598;7.668;2023-03-31T07:17:44;4.82;;;1.20;;
29382;SDS011;16365;51.598;7.668;2023-03-31T07:20:11;4.82;;;1.10;;
29382;SDS011;16365;51.598;7.668;2023-03-31T07:22:43;5.95;;;1.23;;
29382;SDS011;16365;51.598;7.668;2023-03-31T07:25:12;2.80;;;1.20;;
29382;SDS011;16365;51.598;7.668;2023-03-31T07:27:41;5.00;;;1.20;;
29382;SDS011;16365;51.598;7.668;2023-03-31T07:30:09;4.68;;;1.30;;
29382;SDS011;16365;51.598;7.668;2023-03-31T07:32:44;4.45;;;1.50;;
29382;SDS011;16365;51.598;7.668;2023-03-31T07:35:12;4.25;;;1.40;;
29382;SDS011;16365;51.598;7.668;2023-03-31T07:37:39;8.63;;;1.48;;
29382;SDS011;16365;51.598;7.668;2023-03-31T07:40:09;4.20;;;1.55;;
29382;SDS011;16365;51.598;7.668;2023-03-31T07:42:38;4.68;;;1.30;;
29382;SDS011;16365;51.598;7.668;2023-03-31T07:45:05;3.35;;;1.08;;
29382;SDS011;16365;51.598;7.668;2023-03-31T07:47:34;4.05;;;1.10;;
29382;SDS011;16365;51.598;7.668;2023-03-31T07:50:01;6.22;;;1.85;;
29382;SDS011;16365;51.598;7.668;2023-03-31T07:52:28;4.57;;;1.20;;
29382;SDS011;16365;51.598;7.668;2023-03-31T07:54:55;2.00;;;0.90;;
29382;SDS011;16365;51.598;7.668;2023-03-31T07:57:21;4.30;;;1.13;;
29382;SDS011;16365;51.598;7.668;2023-03-31T07:59:48;4.90;;;1.15;;
29382;SDS011;16365;51.598;7.668;2023-03-31T08:02:18;3.08;;;0.90;;
29382;SDS011;16365;51.598;7.668;2023-03-31T08:04:45;6.72;;;1.40;;
29382;SDS011;16365;51.598;7.668;2023-03-31T08:07:13;3.03;;;1.08;;
29382;SDS011;16365;51.598;7.668;2023-03-31T08:09:41;9.02;;;1.30;;
29382;SDS011;16365;51.598;7.668;2023-03-31T08:12:09;3.47;;;1.27;;
29382;SDS011;16365;51.598;7.668;2023-03-31T08:14:36;5.35;;;1.35;;
29382;SDS011;16365;51.598;7.668;2023-03-31T08:17:06;5.57;;;1.35;;
29382;SDS011;16365;51.598;7.668;2023-03-31T08:19:33;6.53;;;1.73;;
29382;SDS011;16365;51.598;7.668;2023-03-31T08:21:59;4.95;;;1.30;;
29382;SDS011;16365;51.598;7.668;2023-03-31T08:24:26;5.85;;;1.40;;
29382;SDS011;16365;51.598;7.668;2023-03-31T08:26:52;5.50;;;1.13;;
29382;SDS011;16365;51.598;7.668;2023-03-31T08:29:19;3.45;;;1.33;;
29382;SDS011;16365;51.598;7.668;2023-03-31T08:31:46;6.50;;;1.58;;
29382;SDS011;16365;51.598;7.668;2023-03-31T08:34:14;4.18;;;2.00;;
29382;SDS011;16365;51.598;7.668;2023-03-31T08:36:41;5.63;;;1.60;;
29382;SDS011;16365;51.598;7.668;2023-03-31T08:39:08;3.90;;;1.55;;
29382;SDS011;16365;51.598;7.668;2023-03-31T08:44:28;4.20;;;1.42;;
29382;SDS011;16365;51.598;7.668;2023-03-31T08:47:20;2.80;;;1.20;;
29382;SDS011;16365;51.598;7.668;2023-03-31T08:49:50;3.70;;;1.33;;
29382;SDS011;16365;51.598;7.668;2023-03-31T08:52:23;6.75;;;1.38;;
29382;SDS011;16365;51.598;7.668;2023-03-31T08:54:55;4.05;;;1.30;;
29382;SDS011;16365;51.598;7.668;2023-03-31T08:57:25;5.13;;;1.38;;
29382;SDS011;16365;51.598;7.668;2023-03-31T08:59:56;4.32;;;1.38;;
29382;SDS011;16365;51.598;7.668;2023-03-31T09:02:42;3.88;;;1.52;;
29382;SDS011;16365;51.598;7.668;2023-03-31T09:05:30;5.80;;;1.00;;
29382;SDS011;16365;51.598;7.668;2023-03-31T09:11:08;7.28;;;1.48;;
29382;SDS011;16365;51.598;7.668;2023-03-31T09:16:47;5.38;;;1.00;;
29382;SDS011;16365;51.598;7.668;2023-03-31T09:25:11;4.38;;;0.70;;
29382;SDS011;16365;51.598;7.668;2023-03-31T09:27:42;3.47;;;1.42;;
29382;SDS011;16365;51.598;7.668;2023-03-31T09:30:14;8.10;;;1.30;;
29382;SDS011;16365;51.598;7.668;2023-03-31T09:32:47;5.47;;;1.15;;
29382;SDS011;16365;51.598;7.668;2023-03-31T09:35:21;6.18;;;1.60;;
29382;SDS011;16365;51.598;7.668;2023-03-31T09:37:54;3.58;;;1.05;;
29382;SDS011;16365;51.598;7.668;2023-03-31T09:40:22;5.18;;;1.35;;
29382;SDS011;16365;51.598;7.668;2023-03-31T09:42:53;4.78;;;1.67;;
29382;SDS011;16365;51.598;7.668;2023-03-31T09:45:39;3.92;;;1.38;;
29382;SDS011;16365;51.598;7.668;2023-03-31T09:48:10;6.00;;;1.65;;
29382;SDS011;16365;51.598;7.668;2023-03-31T09:50:45;5.00;;;1.58;;
29382;SDS011;16365;51.598;7.668;2023-03-31T09:53:19;7.40;;;1.80;;
29382;SDS011;16365;51.598;7.668;2023-03-31T09:55:53;5.82;;;1.60;;
29382;SDS011;16365;51.598;7.668;2023-03-31T09:58:25;5.70;;;2.00;;
29382;SDS011;16365;51.598;7.668;2023-03-31T10:00:57;5.88;;;2.20;;
29382;SDS011;16365;51.598;7.668;2023-03-31T10:03:27;7.63;;;2.40;;
29382;SDS011;16365;51.598;7.668;2023-03-31T10:05:56;10.20;;;2.20;;
29382;SDS011;16365;51.598;7.668;2023-03-31T10:08:29;6.10;;;1.67;;
29382;SDS011;16365;51.598;7.668;2023-03-31T10:21:36;5.78;;;1.55;;
29382;SDS011;16365;51.598;7.668;2023-03-31T10:24:07;7.13;;;2.00;;
29382;SDS011;16365;51.598;7.668;2023-03-31T10:26:35;6.47;;;1.73;;
29382;SDS011;16365;51.598;7.668;2023-03-31T10:29:08;5.78;;;1.90;;
29382;SDS011;16365;51.598;7.668;2023-03-31T10:31:38;6.32;;;1.70;;
29382;SDS011;16365;51.598;7.668;2023-03-31T10:34:05;10.77;;;1.67;;
29382;SDS011;16365;51.598;7.668;2023-03-31T10:36:34;4.85;;;1.50;;
29382;SDS011;16365;51.598;7.668;2023-03-31T10:39:04;7.85;;;1.60;;
29382;SDS011;16365;51.598;7.668;2023-03-31T10:41:32;10.23;;;1.75;;
29382;SDS011;16365;51.598;7.668;2023-03-31T10:44:00;7.38;;;1.60;;
29382;SDS011;16365;51.598;7.668;2023-03-31T10:46:45;4.60;;;1.60;;
29382;SDS011;16365;51.598;7.668;2023-03-31T10:51:53;7.20;;;1.92;;
29382;SDS011;16365;51.598;7.668;2023-03-31T10:54:21;7.38;;;2.00;;
29382;SDS011;16365;51.598;7.668;2023-03-31T10:56:48;7.28;;;2.05;;
29382;SDS011;16365;51.598;7.668;2023-03-31T11:14:03;9.52;;;2.38;;
29382;SDS011;16365;51.598;7.668;2023-03-31T11:22:25;11.57;;;2.47;;
29382;SDS011;16365;51.598;7.668;2023-03-31T11:25:08;10.40;;;2.20;;
29382;SDS011;16365;51.598;7.668;2023-03-31T11:27:49;13.55;;;2.80;;
29382;SDS011;16365;51.598;7.668;2023-03-31T11:36:19;15.63;;;2.78;;
29382;SDS011;16365;51.598;7.668;2023-03-31T11:39:22;13.75;;;3.38;;
29382;SDS011;16365;51.598;7.668;2023-03-31T11:42:03;13.10;;;2.40;;
29382;SDS011;16365;51.598;7.668;2023-03-31T11:44:37;14.13;;;2.70;;
29382;SDS011;16365;51.598;7.668;2023-03-31T11:47:10;14.63;;;3.13;;
29382;SDS011;16365;51.598;7.668;2023-03-31T11:49:45;13.63;;;2.97;;
29382;SDS011;16365;51.598;7.668;2023-03-31T11:52:21;13.25;;;2.47;;
29382;SDS011;16365;51.598;7.668;2023-03-31T11:55:11;16.77;;;2.65;;
29382;SDS011;16365;51.598;7.668;2023-03-31T11:57:43;10.60;;;2.17;;
29382;SDS011;16365;51.598;7.668;2023-03-31T12:00:17;4.53;;;1.20;;
29382;SDS011;16365;51.598;7.668;2023-03-31T12:02:56;5.53;;;1.08;;
29382;SDS011;16365;51.598;7.668;2023-03-31T12:05:23;5.55;;;1.10;;
29382;SDS011;16365;51.598;7.668;2023-03-31T12:07:56;3.53;;;0.75;;
29382;SDS011;16365;51.598;7.668;2023-03-31T12:13:13;3.72;;;0.90;;
29382;SDS011;16365;51.598;7.668;2023-03-31T12:15:51;6.05;;;1.42;;
29382;SDS011;16365;51.598;7.668;2023-03-31T12:18:27;5.63;;;1.63;;
29382;SDS011;16365;51.598;7.668;2023-03-31T12:20:57;8.38;;;1.77;;
29382;SDS011;16365;51.598;7.668;2023-03-31T12:23:28;9.55;;;1.55;;
29382;SDS011;16365;51.598;7.668;2023-03-31T12:26:01;7.32;;;2.15;;
29382;SDS011;16365;51.598;7.668;2023-03-31T12:28:48;3.55;;;1.25;;
29382;SDS011;16365;51.598;7.668;2023-03-31T12:31:21;7.00;;;1.65;;
29382;SDS011;16365;51.598;7.668;2023-03-31T12:33:54;6.43;;;1.52;;
29382;SDS011;16365;51.598;7.668;2023-03-31T12:53:56;5.63;;;1.45;;
29382;SDS011;16365;51.598;7.668;2023-03-31T13:04:40;8.93;;;1.80;;
29382;SDS011;16365;51.598;7.668;2023-03-31T13:07:11;6.18;;;1.30;;
29382;SDS011;16365;51.598;7.668;2023-03-31T13:10:00;6.18;;;1.88;;
29382;SDS011;16365;51.598;7.668;2023-03-31T13:12:59;8.65;;;2.00;;
29382;SDS011;16365;51.598;7.668;2023-03-31T13:15:27;5.97;;;1.70;;
29382;SDS011;16365;51.598;7.668;2023-03-31T13:18:06;11.27;;;1.60;;
29382;SDS011;16365;51.598;7.668;2023-03-31T13:20:44;6.22;;;1.50;;
29382;SDS011;16365;51.598;7.668;2023-03-31T13:23:19;4.90;;;1.60;;
29382;SDS011;16365;51.598;7.668;2023-03-31T13:25:48;8.57;;;1.80;;
29382;SDS011;16365;51.598;7.668;2023-03-31T13:28:17;8.30;;;1.60;;
29382;SDS011;16365;51.598;7.668;2023-03-31T13:31:11;7.43;;;2.05;;
29382;SDS011;16365;51.598;7.668;2023-03-31T13:33:41;6.53;;;1.70;;
29382;SDS011;16365;51.598;7.668;2023-03-31T13:42:06;22.38;;;2.40;;
29382;SDS011;16365;51.598;7.668;2023-03-31T13:47:54;9.73;;;2.03;;
29382;SDS011;16365;51.598;7.668;2023-03-31T13:50:36;9.35;;;2.40;;
29382;SDS011;16365;51.598;7.668;2023-03-31T13:56:11;12.13;;;2.92;;
29382;SDS011;16365;51.598;7.668;2023-03-31T14:08:04;7.65;;;1.90;;
29382;SDS011;16365;51.598;7.668;2023-03-31T14:10:37;9.02;;;2.05;;
29382;SDS011;16365;51.598;7.668;2023-03-31T14:13:07;24.15;;;4.28;;
29382;SDS011;16365;51.598;7.668;2023-03-31T14:15:36;13.10;;;4.70;;
29382;SDS011;16365;51.598;7.668;2023-03-31T14:18:07;18.63;;;3.58;;
29382;SDS011;16365;51.598;7.668;2023-03-31T14:20:56;10.52;;;2.70;;
29382;SDS011;16365;51.598;7.668;2023-03-31T14:26:13;14.82;;;3.33;;
29382;SDS011;16365;51.598;7.668;2023-03-31T14:29:00;9.57;;;2.45;;
29382;SDS011;16365;51.598;7.668;2023-03-31T14:34:29;10.77;;;2.88;;
29382;SDS011;16365;51.598;7.668;2023-03-31T14:37:00;5.05;;;1.70;;
29382;SDS011;16365;51.598;7.668;2023-03-31T14:39:30;12.80;;;2.83;;
29382;SDS011;16365;51.598;7.668;2023-03-31T14:42:04;21.77;;;5.80;;
29382;SDS011;16365;51.598;7.668;2023-03-31T14:44:40;10.50;;;2.15;;
29382;SDS011;16365;51.598;7.668;2023-03-31T14:47:12;15.90;;;2.55;;
29382;SDS011;16365;51.598;7.668;2023-03-31T14:49:40;15.75;;;2.92;;
29382;SDS011;16365;51.598;7.668;2023-03-31T14:52:12;9.48;;;2.47;;
29382;SDS011;16365;51.598;7.668;2023-03-31T14:54:44;14.02;;;2.97;;
29382;SDS011;16365;51.598;7.668;2023-03-31T14:57:19;9.05;;;2.30;;
29382;SDS011;16365;51.598;7.668;2023-03-31T14:59:53;9.57;;;2.10;;
29382;SDS011;16365;51.598;7.668;2023-03-31T15:02:33;12.18;;;2.60;;
29382;SDS011;16365;51.598;7.668;2023-03-31T15:05:03;13.32;;;2.38;;
29382;SDS011;16365;51.598;7.668;2023-03-31T15:07:33;9.27;;;2.03;;
29382;SDS011;16365;51.598;7.668;2023-03-31T15:10:00;8.02;;;2.00;;
29382;SDS011;16365;51.598;7.668;2023-03-31T15:12:27;8.48;;;2.10;;
29382;SDS011;16365;51.598;7.668;2023-03-31T15:14:56;9.30;;;2.28;;
29382;SDS011;16365;51.598;7.668;2023-03-31T15:17:30;10.95;;;2.40;;
29382;SDS011;16365;51.598;7.668;2023-03-31T15:20:16;10.57;;;2.40;;
29382;SDS011;16365;51.598;7.668;2023-03-31T15:23:03;6.25;;;1.70;;
29382;SDS011;16365;51.598;7.668;2023-03-31T15:25:46;9.65;;;2.15;;
29382;SDS011;16365;51.598;7.668;2023-03-31T15:28:13;9.68;;;2.55;;
29382;SDS011;16365;51.598;7.668;2023-03-31T15:30:42;10.00;;;2.33;;
29382;SDS011;16365;51.598;7.668;2023-03-31T15:33:17;9.55;;;2.13;;
29382;SDS011;16365;51.598;7.668;2023-03-31T15:35:47;8.35;;;2.05;;
29382;SDS011;16365;51.598;7.668;2023-03-31T15:38:14;13.70;;;2.67;;
29382;SDS011;16365;51.598;7.668;2023-03-31T15:40:43;7.07;;;2.05;;
29382;SDS011;16365;51.598;7.668;2023-03-31T15:43:15;10.43;;;2.25;;
29382;SDS011;16365;51.598;7.668;2023-03-31T15:45:56;6.18;;;1.80;;
29382;SDS011;16365;51.598;7.668;2023-03-31T15:48:34;7.32;;;2.13;;
29382;SDS011;16365;51.598;7.668;2023-03-31T15:51:06;7.97;;;2.08;;
29382;SDS011;16365;51.598;7.668;2023-03-31T15:54:25;8.48;;;2.60;;
29382;SDS011;16365;51.598;7.668;2023-03-31T15:57:00;9.32;;;2.28;;
29382;SDS011;16365;51.598;7.668;2023-03-31T15:59:30;12.00;;;2.33;;
29382;SDS011;16365;51.598;7.668;2023-03-31T16:02:22;9.27;;;1.88;;
29382;SDS011;16365;51.598;7.668;2023-03-31T16:04:53;10.40;;;2.70;;
29382;SDS011;16365;51.598;7.668;2023-03-31T16:07:23;6.68;;;1.83;;
29382;SDS011;16365;51.598;7.668;2023-03-31T16:09:58;8.20;;;2.20;;
29382;SDS011;16365;51.598;7.668;2023-03-31T16:12:48;9.70;;;1.83;;
29382;SDS011;16365;51.598;7.668;2023-03-31T16:15:17;4.50;;;1.25;;
29382;SDS011;16365;51.598;7.668;2023-03-31T16:17:51;4.85;;;1.60;;
29382;SDS011;16365;51.598;7.668;2023-03-31T16:20:27;7.38;;;1.88;;
29382;SDS011;16365;51.598;7.668;2023-03-31T16:25:43;6.18;;;2.80;;
29382;SDS011;16365;51.598;7.668;2023-03-31T16:28:18;6.75;;;2.90;;
29382;SDS011;16365;51.598;7.668;2023-03-31T16:30:47;7.80;;;2.10;;
29382;SDS011;16365;51.598;7.668;2023-03-31T16:33:15;9.07;;;1.77;;
29382;SDS011;16365;51.598;7.668;2023-03-31T16:35:45;5.68;;;1.67;;
29382;SDS011;16365;51.598;7.668;2023-03-31T16:38:21;4.85;;;2.10;;
29382;SDS011;16365;51.598;7.668;2023-03-31T16:40:50;8.13;;;2.10;;
29382;SDS011;16365;51.598;7.668;2023-03-31T16:43:20;6.30;;;1.50;;
29382;SDS011;16365;51.598;7.668;2023-03-31T16:45:52;5.13;;;2.03;;
29382;SDS011;16365;51.598;7.668;2023-03-31T16:48:21;8.57;;;1.55;;
29382;SDS011;16365;51.598;7.668;2023-03-31T16:50:51;6.85;;;1.80;;
29382;SDS011;16365;51.598;7.668;2023-03-31T16:53:21;6.43;;;1.98;;
29382;SDS011;16365;51.598;7.668;2023-03-31T16:55:56;8.05;;;2.20;;
29382;SDS011;16365;51.598;7.668;2023-03-31T16:58:23;6.30;;;1.98;;
29382;SDS011;16365;51.598;7.668;2023-03-31T17:00:51;6.30;;;2.05;;
29382;SDS011;16365;51.598;7.668;2023-03-31T17:03:18;7.50;;;1.42;;
29382;SDS011;16365;51.598;7.668;2023-03-31T17:05:46;6.22;;;1.75;;
29382;SDS011;16365;51.598;7.668;2023-03-31T17:08:16;6.20;;;1.80;;
29382;SDS011;16365;51.598;7.668;2023-03-31T17:10:54;4.97;;;1.58;;
29382;SDS011;16365;51.598;7.668;2023-03-31T17:13:24;9.02;;;1.77;;
29382;SDS011;16365;51.598;7.668;2023-03-31T17:15:51;7.57;;;1.85;;
29382;SDS011;16365;51.598;7.668;2023-03-31T17:18:38;3.83;;;1.70;;
29382;SDS011;16365;51.598;7.668;2023-03-31T17:21:06;3.88;;;1.17;;
29382;SDS011;16365;51.598;7.668;2023-03-31T17:23:34;4.30;;;1.70;;
29382;SDS011;16365;51.598;7.668;2023-03-31T17:26:01;5.68;;;1.80;;
29382;SDS011;16365;51.598;7.668;2023-03-31T17:28:29;6.28;;;2.08;;
29382;SDS011;16365;51.598;7.668;2023-03-31T17:30:56;5.22;;;1.27;;